Time;durP1;ratioP1;P1;durP2;ratioP2;P2;SDS_P1;SDS_P2;PMS_P1;PMS_P2;Temp;Humidity;BMP_temperature;BMP_pressure;BME280_temperature;BME280_humidity;BME280_pressure;Samples;Min_cycle;Max_cycle;Signal;HPM_P1;HPM_P2
2024/01/01 00:01:47;;;;;;;3.90;2.72;;;;;;;17.97;57.90;99275.13;20830139;28;20041;-73
2024/01/01 00:11:49;;;;;;;5.13;3.92;;;;;;;17.92;57.94;99276.66;20801249;28;20180;-73
2024/01/01 00:21:50;;;;;;;6.72;4.75;;;;;;;17.87;57.92;99274.50;20802682;28;20061;-73
2024/01/01 00:31:52;;;;;;;7.15;4.68;;;;;;;17.86;57.71;99255.84;20817839;28;20083;-73
2024/01/01 00:41:54;;;;;;;6.97;4.88;;;;;;;17.87;57.45;99250.25;20820646;28;20131;-73
2024/01/01 00:51:56;;;;;;;7.10;5.18;;;;;;;17.84;57.41;99242.53;20801968;28;20130;-73
2024/01/01 01:01:58;;;;;;;6.20;5.13;;;;;;;17.80;57.32;99247.47;20829726;28;20451;-72
2024/01/01 01:12:00;;;;;;;8.38;5.32;;;;;;;17.78;57.48;99260.25;20822365;28;20629;-72
2024/01/01 01:22:01;;;;;;;7.03;5.10;;;;;;;17.66;57.45;99237.41;20830937;28;20049;-73
2024/01/01 01:32:05;;;;;;;8.38;5.32;;;;;;;17.87;57.10;99252.97;20813691;28;20045;-72
2024/01/01 01:42:10;;;;;;;8.25;6.00;;;;;;;17.80;56.99;99247.47;20826512;28;20106;-72
2024/01/01 01:52:11;;;;;;;7.38;6.07;;;;;;;17.94;56.88;99269.25;20821073;28;20052;-73
2024/01/01 02:02:14;;;;;;;7.78;5.88;;;;;;;17.97;56.59;99269.75;20807917;28;20131;-73
2024/01/01 02:12:16;;;;;;;7.63;6.13;;;;;;;17.99;56.84;99266.88;20829451;28;20106;-73
2024/01/01 02:22:18;;;;;;;8.32;6.57;;;;;;;18.02;56.46;99257.66;20829972;28;20142;-73
2024/01/01 02:32:20;;;;;;;7.97;6.03;;;;;;;18.04;56.53;99275.28;20815451;28;20059;-73
2024/01/01 02:42:22;;;;;;;8.77;6.03;;;;;;;18.10;56.23;99268.34;20831243;28;20105;-73
2024/01/01 02:52:23;;;;;;;7.28;5.75;;;;;;;18.14;55.97;99274.25;20828180;28;20057;-73
2024/01/01 03:02:25;;;;;;;6.30;4.72;;;;;;;18.15;55.93;99275.91;20800944;28;20088;-72
2024/01/01 03:12:27;;;;;;;5.85;4.50;;;;;;;18.22;55.89;99287.66;20830497;28;20257;-73
2024/01/01 03:22:29;;;;;;;5.55;4.25;;;;;;;18.26;55.65;99288.97;20795723;28;20068;-73
2024/01/01 03:32:31;;;;;;;5.65;3.92;;;;;;;18.27;55.62;99286.09;20799629;28;20060;-72
2024/01/01 03:42:32;;;;;;;4.85;3.50;;;;;;;18.24;55.56;99282.94;20857064;28;20069;-73
2024/01/01 03:52:34;;;;;;;5.20;3.83;;;;;;;18.33;55.50;99291.78;20830679;28;20179;-73
2024/01/01 04:02:36;;;;;;;5.57;3.05;;;;;;;18.32;55.48;99288.25;20832931;28;20052;-73
2024/01/01 04:12:38;;;;;;;4.68;3.05;;;;;;;18.33;55.55;99289.94;20833200;28;20139;-72
2024/01/01 04:22:43;;;;;;;4.18;2.88;;;;;;;18.31;55.43;99281.19;20813503;28;20056;-73
2024/01/01 04:32:45;;;;;;;3.40;2.50;;;;;;;18.31;55.54;99296.50;20814132;28;20060;-73
2024/01/01 04:42:49;;;;;;;3.78;2.40;;;;;;;18.28;55.63;99300.41;20838120;28;20416;-73
2024/01/01 04:52:51;;;;;;;2.97;1.97;;;;;;;18.27;55.66;99296.03;20848043;28;20064;-72
2024/01/01 05:02:56;;;;;;;2.95;1.88;;;;;;;18.24;55.67;99301.78;20833152;28;20111;-72
2024/01/01 05:12:57;;;;;;;2.80;1.60;;;;;;;18.27;55.75;99290.66;20839228;28;20445;-73
2024/01/01 05:22:59;;;;;;;3.65;1.70;;;;;;;18.25;55.84;99290.81;20824713;28;20048;-73
2024/01/01 05:33:01;;;;;;;3.25;1.90;;;;;;;18.26;56.19;99310.53;20840271;28;20041;-73
2024/01/01 05:43:03;;;;;;;2.70;1.83;;;;;;;18.24;56.29;99293.69;20850998;28;20102;-73
2024/01/01 05:53:06;;;;;;;2.38;1.58;;;;;;;18.22;56.41;99319.97;20854259;28;20045;-73
2024/01/01 06:03:10;;;;;;;2.17;1.23;;;;;;;18.18;56.54;99324.03;20833075;28;20155;-73
2024/01/01 06:13:12;;;;;;;2.35;1.40;;;;;;;18.13;56.80;99342.59;20849598;28;20652;-73
2024/01/01 06:23:13;;;;;;;2.30;1.27;;;;;;;18.10;57.04;99349.97;20842541;28;20056;-73
2024/01/01 06:33:15;;;;;;;3.40;1.60;;;;;;;18.08;57.24;99352.00;20837734;28;20048;-73
2024/01/01 06:43:17;;;;;;;2.28;1.15;;;;;;;18.04;57.37;99374.91;20842949;28;20403;-73
2024/01/01 06:53:19;;;;;;;3.03;1.30;;;;;;;18.04;57.33;99383.00;20829684;28;20052;-73
2024/01/01 07:03:21;;;;;;;2.63;1.27;;;;;;;18.06;57.48;99396.31;20823940;28;20417;-73
2024/01/01 07:13:22;;;;;;;2.88;1.35;;;;;;;18.05;57.49;99398.13;20821730;28;20049;-73
2024/01/01 07:23:24;;;;;;;2.15;1.20;;;;;;;18.05;57.47;99425.06;20828624;28;20566;-73
2024/01/01 07:33:26;;;;;;;2.78;1.10;;;;;;;18.05;57.41;99438.53;20820586;28;20057;-73
2024/01/01 07:43:28;;;;;;;2.03;1.08;;;;;;;18.07;57.52;99447.28;20841584;28;20070;-73
2024/01/01 07:53:30;;;;;;;2.20;1.05;;;;;;;18.06;57.64;99463.63;20836930;28;20057;-73
2024/01/01 08:03:31;;;;;;;1.63;0.90;;;;;;;18.11;57.52;99467.47;20795202;28;20095;-73
2024/01/01 08:13:34;;;;;;;2.15;0.90;;;;;;;18.20;57.30;99481.75;20845916;28;20501;-74
2024/01/01 08:23:36;;;;;;;1.63;0.80;;;;;;;18.19;57.78;99498.94;20851378;28;20052;-72
2024/01/01 08:33:37;;;;;;;1.33;0.80;;;;;;;18.30;57.50;99516.59;20841679;28;20102;-73
2024/01/01 08:43:39;;;;;;;3.33;1.00;;;;;;;18.51;56.88;99528.63;20866217;28;20076;-73
2024/01/01 08:53:41;;;;;;;3.38;0.90;;;;;;;18.62;56.50;99539.06;20825964;28;20053;-73
2024/01/01 09:03:43;;;;;;;1.95;0.80;;;;;;;18.69;56.22;99536.47;20833902;28;20072;-73
2024/01/01 09:13:45;;;;;;;2.65;0.68;;;;;;;18.67;56.08;99546.59;20805385;28;20497;-73
2024/01/01 09:23:46;;;;;;;2.25;1.13;;;;;;;18.69;56.00;99564.28;20789724;28;20055;-73
2024/01/01 09:33:48;;;;;;;2.58;1.20;;;;;;;18.73;55.98;99577.41;20854329;28;20136;-73
2024/01/01 09:43:51;;;;;;;2.15;1.00;;;;;;;18.76;55.72;99594.06;20832233;28;20392;-73
2024/01/01 09:53:53;;;;;;;2.72;0.80;;;;;;;18.75;55.84;99626.63;20844425;28;20106;-73
2024/01/01 10:04:07;;;;;;;1.30;0.80;;;;;;;18.76;55.75;99633.69;20842236;28;20468;-71
2024/01/01 10:14:09;;;;;;;0.73;0.60;;;;;;;18.97;55.72;99642.06;20828144;28;20138;-70
2024/01/01 10:24:16;;;;;;;3.33;0.80;;;;;;;19.31;55.46;99658.13;20813520;28;20049;-70
2024/01/01 10:34:33;;;;;;;2.63;0.80;;;;;;;19.42;55.35;99668.50;20819506;28;20037;-73
2024/01/01 10:44:35;;;;;;;0.65;0.50;;;;;;;19.60;55.28;99683.63;20818621;28;20500;-72
2024/01/01 10:54:55;;;;;;;1.77;0.65;;;;;;;19.82;54.71;99693.59;20812063;28;20049;-76
2024/01/01 11:05:09;;;;;;;3.17;0.90;;;;;;;19.91;55.04;99696.31;20814186;28;20061;-72
2024/01/01 11:15:37;;;;;;;2.00;0.63;;;;;;;19.91;55.17;99712.50;20807455;28;20053;-72
2024/01/01 11:25:39;;;;;;;2.25;0.90;;;;;;;19.84;55.05;99726.66;20809058;28;20053;-73
2024/01/01 11:35:41;;;;;;;2.65;0.90;;;;;;;19.77;55.36;99728.41;20803823;28;20053;-75
2024/01/01 11:45:43;;;;;;;1.00;0.60;;;;;;;19.72;55.60;99741.59;20800639;28;20053;-72
2024/01/01 11:56:07;;;;;;;1.70;0.60;;;;;;;19.84;55.38;99748.28;20818121;28;20493;-73
2024/01/01 12:06:10;;;;;;;3.33;0.70;;;;;;;20.00;55.29;99751.94;20822102;28;20055;-71
2024/01/01 12:16:16;;;;;;;1.80;0.60;;;;;;;20.06;54.80;99748.53;20815617;28;20045;-70
2024/01/01 12:26:24;;;;;;;0.82;0.50;;;;;;;20.06;54.89;99737.72;20804727;28;20685;-72
2024/01/01 12:36:25;;;;;;;1.23;0.85;;;;;;;20.05;55.19;99746.84;20810854;28;20045;-72
2024/01/01 12:46:27;;;;;;;2.90;0.77;;;;;;;20.10;55.26;99752.56;20815463;28;20502;-69
2024/01/01 12:56:29;;;;;;;4.95;1.10;;;;;;;20.05;55.84;99765.75;20822963;28;20045;-70
2024/01/01 13:06:31;;;;;;;5.15;1.27;;;;;;;19.99;55.90;99779.97;20840307;28;20060;-67
2024/01/01 13:16:33;;;;;;;6.97;0.85;;;;;;;19.92;57.68;99773.63;20826966;28;20045;-65
2024/01/01 13:26:35;;;;;;;3.08;0.70;;;;;;;19.94;58.97;99787.78;20814265;28;20118;-65
2024/01/01 13:36:36;;;;;;;4.45;1.02;;;;;;;19.97;59.48;99785.53;20807101;28;20492;-64
2024/01/01 13:46:39;;;;;;;3.83;1.00;;;;;;;19.92;59.49;99804.16;20820789;28;20052;-64
2024/01/01 13:56:41;;;;;;;3.70;1.17;;;;;;;19.82;59.49;99815.13;20824756;28;20061;-65
2024/01/01 14:06:43;;;;;;;3.92;0.90;;;;;;;19.79;59.73;99828.16;20805185;28;20717;-64
2024/01/01 14:16:46;;;;;;;2.10;0.50;;;;;;;19.81;59.31;99835.03;20823838;28;20551;-63
2024/01/01 14:26:48;;;;;;;3.38;0.70;;;;;;;19.79;59.18;99849.75;20797176;28;20048;-64
2024/01/01 14:36:50;;;;;;;2.05;0.82;;;;;;;19.77;59.31;99860.72;20801772;28;20494;-66
2024/01/01 14:46:51;;;;;;;3.05;0.70;;;;;;;19.78;59.49;99878.59;20848164;28;20060;-65
2024/01/01 14:56:53;;;;;;;2.47;0.80;;;;;;;19.82;60.67;99893.44;20846492;28;20057;-63
2024/01/01 15:06:55;;;;;;;3.97;1.15;;;;;;;19.77;61.62;99922.84;20832857;28;20056;-66
2024/01/01 15:16:57;;;;;;;2.60;0.98;;;;;;;19.76;60.55;99926.56;20817091;28;20088;-66
2024/01/01 15:26:59;;;;;;;3.45;0.80;;;;;;;19.77;60.35;99933.63;20811378;28;20163;-66
2024/01/01 15:37:01;;;;;;;3.40;1.08;;;;;;;19.73;60.34;99953.06;20817528;28;20063;-65
2024/01/01 15:47:03;;;;;;;2.50;0.82;;;;;;;19.69;59.93;99966.06;20832543;28;20053;-64
2024/01/01 15:57:05;;;;;;;2.35;0.77;;;;;;;19.62;59.61;99984.78;20824458;28;20099;-64
2024/01/01 16:07:07;;;;;;;2.47;0.70;;;;;;;19.67;59.55;99995.09;20807499;28;20079;-65
2024/01/01 16:17:09;;;;;;;2.75;0.90;;;;;;;19.76;58.89;100007.56;20817012;28;20049;-70
2024/01/01 16:27:11;;;;;;;3.65;1.00;;;;;;;19.70;59.81;100010.94;20808874;28;20055;-66
2024/01/01 16:37:13;;;;;;;5.43;0.75;;;;;;;19.55;59.71;100018.88;20788567;28;20092;-72
2024/01/01 16:47:14;;;;;;;2.05;0.90;;;;;;;19.48;59.42;100034.06;20792162;28;20589;-71
2024/01/01 16:57:18;;;;;;;2.67;1.20;;;;;;;19.38;59.35;100028.81;20777151;28;20045;-70
2024/01/01 17:07:19;;;;;;;5.95;0.90;;;;;;;19.17;60.10;100042.78;20798732;28;20053;-69
2024/01/01 17:17:21;;;;;;;3.90;0.90;;;;;;;19.02;60.95;100043.44;20805634;28;20045;-70
2024/01/01 17:27:23;;;;;;;3.97;0.90;;;;;;;18.96;61.94;100044.09;20825943;28;20096;-75
2024/01/01 17:37:25;;;;;;;2.72;0.98;;;;;;;18.91;61.50;100059.91;20788751;28;20060;-71
2024/01/01 17:47:29;;;;;;;3.17;0.90;;;;;;;18.85;61.50;100064.09;20814660;28;20052;-69
2024/01/01 17:57:31;;;;;;;3.92;1.20;;;;;;;18.88;61.47;100060.25;20789072;28;20648;-72
2024/01/01 18:07:40;;;;;;;4.00;1.30;;;;;;;18.83;61.64;100074.19;20811254;28;20126;-70
2024/01/01 18:17:42;;;;;;;2.28;1.17;;;;;;;18.77;61.49;100074.84;20803622;28;20073;-72
2024/01/01 18:27:44;;;;;;;3.63;1.20;;;;;;;18.73;61.26;100081.59;20810884;28;20052;-74
2024/01/01 18:37:45;;;;;;;2.78;1.20;;;;;;;18.93;60.97;100077.59;20822401;28;20053;-70
2024/01/01 18:47:50;;;;;;;3.10;1.53;;;;;;;19.09;60.47;100081.41;20846076;28;20459;-72
2024/01/01 18:57:52;;;;;;;4.10;1.75;;;;;;;19.03;59.81;100090.16;20820849;28;20524;-70
2024/01/01 19:07:54;;;;;;;3.60;1.40;;;;;;;18.92;59.68;100084.00;20828507;28;20048;-71
2024/01/01 19:17:55;;;;;;;3.70;1.48;;;;;;;18.80;59.64;100093.41;20809664;28;20049;-71
2024/01/01 19:27:57;;;;;;;5.90;1.23;;;;;;;18.74;59.41;100084.09;20819961;28;20051;-71
2024/01/01 19:37:59;;;;;;;4.57;1.77;;;;;;;18.64;59.12;100084.25;20836095;28;20053;-71
2024/01/01 19:48:01;;;;;;;3.55;1.48;;;;;;;18.55;59.10;100075.28;20849301;28;20080;-71
2024/01/01 19:58:03;;;;;;;3.78;1.70;;;;;;;18.50;58.90;100063.25;20823017;28;20505;-71
2024/01/01 20:08:05;;;;;;;5.55;2.22;;;;;;;18.46;58.67;100064.59;20825423;28;20045;-71
2024/01/01 20:18:07;;;;;;;3.05;1.73;;;;;;;18.44;58.13;100062.06;20824800;28;20044;-71
2024/01/01 20:28:09;;;;;;;2.90;1.50;;;;;;;18.34;58.07;100048.72;20825543;28;20057;-71
2024/01/01 20:38:11;;;;;;;3.15;1.70;;;;;;;18.29;57.83;100047.50;20829949;28;20045;-71
2024/01/01 20:48:13;;;;;;;3.20;1.80;;;;;;;18.24;57.79;100050.69;20845030;28;20512;-71
2024/01/01 20:58:15;;;;;;;4.35;1.60;;;;;;;18.21;57.41;100045.63;20822477;28;20085;-71
2024/01/01 21:08:16;;;;;;;3.85;2.08;;;;;;;18.16;57.34;100043.38;20828812;28;20049;-71
2024/01/01 21:18:18;;;;;;;4.03;2.05;;;;;;;18.14;57.31;100044.56;20846490;28;20053;-71
2024/01/01 21:28:20;;;;;;;4.82;2.05;;;;;;;18.10;57.11;100039.47;20814527;28;20056;-71
2024/01/01 21:38:22;;;;;;;3.08;1.70;;;;;;;18.07;57.07;100025.50;20844553;28;20037;-70
2024/01/01 21:48:24;;;;;;;2.80;1.50;;;;;;;18.05;56.88;100031.03;20799137;28;20506;-71
2024/01/01 21:58:26;;;;;;;3.42;1.83;;;;;;;18.05;56.78;100020.25;20842441;28;20065;-71
2024/01/01 22:08:28;;;;;;;3.70;1.90;;;;;;;18.02;56.61;100015.19;20830007;28;20057;-71
2024/01/01 22:18:30;;;;;;;3.28;1.35;;;;;;;18.00;56.45;99992.09;20825226;28;20417;-71
2024/01/01 22:28:35;;;;;;;3.65;1.60;;;;;;;17.96;56.31;99978.09;20831314;28;20044;-71
2024/01/01 22:38:37;;;;;;;2.42;1.40;;;;;;;17.93;56.23;99965.81;20840066;28;20122;-71
2024/01/01 22:48:39;;;;;;;3.30;1.63;;;;;;;17.89;56.32;99956.31;20839506;28;20099;-71
2024/01/01 22:58:41;;;;;;;4.80;1.70;;;;;;;17.90;55.99;99931.13;20813054;28;20056;-71
2024/01/01 23:08:43;;;;;;;2.88;1.60;;;;;;;17.89;55.91;99902.47;20829482;28;20049;-71
2024/01/01 23:18:45;;;;;;;3.50;1.55;;;;;;;17.86;55.71;99883.13;20846937;28;20497;-71
2024/01/01 23:28:47;;;;;;;4.25;1.50;;;;;;;17.86;55.60;99869.66;20819703;28;20041;-71
2024/01/01 23:38:49;;;;;;;3.65;1.60;;;;;;;17.85;55.58;99841.06;20859169;28;20053;-71
2024/01/01 23:48:50;;;;;;;2.85;1.40;;;;;;;17.82;55.43;99821.53;20821163;28;20496;-71
2024/01/01 23:58:52;;;;;;;2.65;1.73;;;;;;;17.81;55.29;99809.06;20845663;28;20049;-71
